Pagrindinis puslapis
METAR-TAF:

METAR-TAF

Oro uostai :

Såtenäs, Švedija

platuma: 58-26N, ilguma: 012-42E, Aukštis: 54 m

Dabartinis oras

Ataskaita buvo paskelbta 32 minutes, ne 15:50 UTC
Vėjas 15 kt iš Vakarų
Temperatūra 3°C
Drėgmė 87%
Slėgis 994 hPa
Matomumas 10 km arba daugiau

METAR: ESIB 071550Z AUTO 27015KT 9999 NCD 03/01 Q0994

Laikas: 17:22 (16:22 UTC)


TAF: trūkstamas

Orai ataskaitas ir orų prognozės (METAR, TAF).

turimą stotys yra geltonos ir raudonos taškus žemėlapyje.

Perkelti pele per norėdami pamatyti stoties vardą.

Tada spustelėkite, norėdami matyti oro stebėjimo ir prognozės.

Norėdami pakeisti žemėlapį: spustelėkite ant žalios mygtukų su juodo kryžiaus žemyn,; žalią mygtuką su brūkšneliu, jei norite nutolinti; arba žalių rodyklių gretimoms žemėlapius.


METAR-TAF: